createdAt,value
2017-03-24T00:00:26.995Z,0
2017-03-24T00:01:35.702Z,0
2017-03-24T00:02:45.280Z,0
2017-03-24T00:03:55.543Z,0
2017-03-24T00:05:04.374Z,0
2017-03-24T00:06:13.351Z,0
2017-03-24T00:07:22.323Z,0
2017-03-24T00:08:31.693Z,0
2017-03-24T00:09:41.293Z,0
2017-03-24T00:10:50.321Z,0
2017-03-24T00:11:59.286Z,0
2017-03-24T00:13:08.875Z,0
2017-03-24T00:14:18.966Z,0
2017-03-24T00:15:27.938Z,0
2017-03-24T00:16:37.513Z,0
2017-03-24T00:17:46.190Z,0
2017-03-24T00:18:55.848Z,0
2017-03-24T00:20:05.466Z,0
2017-03-24T00:21:14.735Z,0
2017-03-24T00:22:23.709Z,0
2017-03-24T00:23:33.044Z,0
2017-03-24T00:24:42.623Z,0
2017-03-24T00:25:51.533Z,0
2017-03-24T00:27:00.511Z,0
2017-03-24T00:28:09.576Z,0
2017-03-24T00:29:19.205Z,0
2017-03-24T00:30:28.300Z,0
2017-03-24T00:31:36.965Z,0
2017-03-24T00:32:46.240Z,0
2017-03-24T00:33:55.216Z,0
2017-03-24T00:35:04.514Z,0
2017-03-24T00:36:13.488Z,0
2017-03-24T00:37:22.934Z,0
2017-03-24T00:38:32.508Z,0
2017-03-24T00:39:42.458Z,0
2017-03-24T00:40:52.192Z,0
2017-03-24T00:42:01.277Z,0
2017-03-24T00:43:10.371Z,0
2017-03-24T00:44:19.753Z,0
2017-03-24T00:45:29.104Z,0
2017-03-24T00:46:38.072Z,0
2017-03-24T00:47:47.344Z,0
2017-03-24T00:48:56.964Z,0
2017-03-24T00:50:06.243Z,0
2017-03-24T00:51:15.218Z,0
2017-03-24T00:52:24.255Z,0
2017-03-24T00:53:33.627Z,0
2017-03-24T00:54:42.931Z,0
2017-03-24T00:55:51.902Z,0
2017-03-24T00:57:01.187Z,0
2017-03-24T00:58:10.280Z,0
2017-03-24T00:59:19.578Z,0
2017-03-24T01:00:29.220Z,0
2017-03-24T01:01:38.521Z,0
2017-03-24T01:02:48.089Z,0
2017-03-24T01:03:57.969Z,0
2017-03-24T01:05:06.648Z,0
2017-03-24T01:06:15.934Z,0
2017-03-24T01:07:25.541Z,0
2017-03-24T01:08:34.631Z,0
2017-03-24T01:09:44.258Z,0
2017-03-24T01:10:53.549Z,0
2017-03-24T01:12:02.943Z,0
2017-03-24T01:13:12.843Z,0
2017-03-24T01:14:22.419Z,0
2017-03-24T01:15:31.741Z,0
2017-03-24T01:16:40.618Z,0
2017-03-24T01:17:49.987Z,0
2017-03-24T01:18:59.353Z,0
2017-03-24T01:20:08.631Z,0
2017-03-24T01:21:17.597Z,0
2017-03-24T01:22:26.311Z,0
2017-03-24T01:23:35.284Z,0
2017-03-24T01:24:44.931Z,0
2017-03-24T01:25:54.203Z,0
2017-03-24T01:27:03.478Z,0
2017-03-24T01:28:12.534Z,0
2017-03-24T01:29:21.892Z,0
2017-03-24T01:30:31.333Z,0
2017-03-24T01:31:40.765Z,0
2017-03-24T01:32:50.650Z,0
2017-03-24T01:34:00.032Z,0
2017-03-24T01:35:09.296Z,0
2017-03-24T01:36:18.655Z,0
2017-03-24T01:37:28.034Z,0
2017-03-24T01:38:37.308Z,0
2017-03-24T01:39:46.293Z,0
2017-03-24T01:40:55.270Z,0
2017-03-24T01:42:04.631Z,0
2017-03-24T01:43:13.610Z,0
2017-03-24T01:44:23.186Z,0
2017-03-24T01:45:31.862Z,0
2017-03-24T01:46:40.830Z,0
2017-03-24T01:47:49.805Z,0
2017-03-24T01:48:59.082Z,0
2017-03-24T01:50:08.361Z,0
2017-03-24T01:51:17.640Z,0
2017-03-24T01:52:26.906Z,0
2017-03-24T01:53:36.480Z,0
2017-03-24T01:54:45.458Z,0
2017-03-24T01:55:54.733Z,0
2017-03-24T01:57:04.006Z,0
2017-03-24T01:58:13.281Z,0
2017-03-24T01:59:22.561Z,0
2017-03-24T02:00:31.868Z,0
2017-03-24T02:01:40.837Z,0
2017-03-24T02:02:49.811Z,0
2017-03-24T02:03:59.085Z,0
2017-03-24T02:05:08.662Z,0
2017-03-24T02:06:18.242Z,0
2017-03-24T02:07:27.213Z,0
2017-03-24T02:08:36.490Z,0
2017-03-24T02:09:45.755Z,0
2017-03-24T02:10:54.734Z,0
2017-03-24T02:12:04.007Z,0
2017-03-24T02:13:12.979Z,0
2017-03-24T02:14:22.261Z,0
2017-03-24T02:15:31.540Z,0
2017-03-24T02:16:40.212Z,0
2017-03-24T02:17:49.797Z,0
2017-03-24T02:18:58.780Z,0
2017-03-24T02:20:08.044Z,0
2017-03-24T02:21:17.925Z,0
2017-03-24T02:22:27.496Z,0
2017-03-24T02:23:36.452Z,0
2017-03-24T02:24:46.074Z,0
2017-03-24T02:25:55.051Z,0
2017-03-24T02:27:03.724Z,0
2017-03-24T02:28:13.010Z,0
2017-03-24T02:29:22.585Z,0
2017-03-24T02:30:31.849Z,0
2017-03-24T02:31:41.121Z,0
2017-03-24T02:32:50.093Z,0
2017-03-24T02:33:59.374Z,0
2017-03-24T02:35:08.350Z,0
2017-03-24T02:36:17.630Z,0
2017-03-24T02:37:26.609Z,0
2017-03-24T02:38:36.186Z,0
2017-03-24T02:39:45.764Z,0
2017-03-24T02:40:55.037Z,0
2017-03-24T02:42:04.311Z,0
2017-03-24T02:43:13.599Z,0
2017-03-24T02:44:23.177Z,0
2017-03-24T02:45:32.758Z,0
2017-03-24T02:46:42.014Z,0
2017-03-24T02:47:50.989Z,0
2017-03-24T02:49:00.872Z,0
2017-03-24T02:50:10.153Z,0
2017-03-24T02:51:19.435Z,0
2017-03-24T02:52:28.109Z,0
2017-03-24T02:53:37.690Z,0
2017-03-24T02:54:47.272Z,0
2017-03-24T02:55:56.547Z,0
2017-03-24T02:57:05.821Z,0
2017-03-24T02:58:14.796Z,0
2017-03-24T02:59:24.374Z,0
2017-03-24T03:00:33.952Z,0
2017-03-24T03:01:43.521Z,0
2017-03-24T03:02:52.801Z,0
2017-03-24T03:04:02.075Z,0
2017-03-24T03:05:11.661Z,0
2017-03-24T03:06:20.934Z,0
2017-03-24T03:07:29.898Z,0
2017-03-24T03:08:39.183Z,0
2017-03-24T03:09:48.750Z,0
2017-03-24T03:10:58.025Z,0
2017-03-24T03:12:07.001Z,0
2017-03-24T03:13:16.270Z,0
2017-03-24T03:14:26.159Z,0
2017-03-24T03:15:35.131Z,0
2017-03-24T03:16:44.102Z,0
2017-03-24T03:17:53.379Z,0
2017-03-24T03:19:03.567Z,0
2017-03-24T03:20:12.851Z,0
2017-03-24T03:21:21.517Z,0
2017-03-24T03:22:30.486Z,0
2017-03-24T03:23:39.760Z,0
2017-03-24T03:24:49.645Z,0
2017-03-24T03:25:58.921Z,0
2017-03-24T03:27:08.204Z,0
2017-03-24T03:28:17.171Z,0
2017-03-24T03:29:26.437Z,0
2017-03-24T03:30:35.729Z,0
2017-03-24T03:31:44.744Z,0
2017-03-24T03:32:54.322Z,0
2017-03-24T03:34:03.901Z,0
2017-03-24T03:35:13.485Z,0
2017-03-24T03:36:22.156Z,0
2017-03-24T03:37:31.421Z,0
2017-03-24T03:38:40.389Z,0
2017-03-24T03:39:49.973Z,0
2017-03-24T03:40:59.253Z,0
2017-03-24T03:42:08.271Z,0
2017-03-24T03:43:17.552Z,0
2017-03-24T03:44:27.433Z,0
2017-03-24T03:45:36.409Z,0
2017-03-24T03:46:45.383Z,0
2017-03-24T03:47:54.668Z,0
2017-03-24T03:49:04.280Z,0
2017-03-24T03:50:13.249Z,0
2017-03-24T03:51:22.226Z,0
2017-03-24T03:52:30.931Z,0
2017-03-24T03:53:39.915Z,0
2017-03-24T03:54:49.199Z,0
2017-03-24T03:55:58.786Z,0
2017-03-24T03:57:07.754Z,0
2017-03-24T03:58:16.428Z,0
2017-03-24T03:59:25.707Z,0
2017-03-24T04:00:35.283Z,0
2017-03-24T04:01:44.254Z,0
2017-03-24T04:02:53.838Z,0
2017-03-24T04:04:03.418Z,0
2017-03-24T04:05:12.699Z,0
2017-03-24T04:06:21.677Z,0
2017-03-24T04:07:30.698Z,0
2017-03-24T04:08:39.983Z,0
2017-03-24T04:09:49.560Z,0
2017-03-24T04:10:59.141Z,0
2017-03-24T04:12:07.816Z,0
2017-03-24T04:13:17.083Z,0
2017-03-24T04:14:26.970Z,0
2017-03-24T04:15:35.937Z,0
2017-03-24T04:16:44.907Z,0
2017-03-24T04:17:54.174Z,0
2017-03-24T04:19:03.753Z,0
2017-03-24T04:20:13.329Z,0
2017-03-24T04:21:22.593Z,0
2017-03-24T04:22:31.573Z,0
2017-03-24T04:23:40.852Z,0
2017-03-24T04:24:50.424Z,0
2017-03-24T04:25:59.400Z,0
2017-03-24T04:27:08.663Z,0
2017-03-24T04:28:17.937Z,0
2017-03-24T04:29:27.509Z,0
2017-03-24T04:30:36.782Z,0
2017-03-24T04:31:45.757Z,0
2017-03-24T04:32:55.334Z,0
2017-03-24T04:34:04.614Z,0
2017-03-24T04:35:14.186Z,0
2017-03-24T04:36:23.164Z,0
2017-03-24T04:37:32.481Z,0
2017-03-24T04:38:42.067Z,0
2017-03-24T04:39:51.645Z,0
2017-03-24T04:41:00.618Z,0
2017-03-24T04:42:09.911Z,0
2017-03-24T04:43:18.579Z,0
2017-03-24T04:44:27.855Z,0
2017-03-24T04:45:37.125Z,0
2017-03-24T04:46:46.099Z,0
2017-03-24T04:47:55.375Z,0
2017-03-24T04:49:04.653Z,0
2017-03-24T04:50:13.933Z,0
2017-03-24T04:51:22.901Z,0
2017-03-24T04:52:31.873Z,0
2017-03-24T04:53:40.841Z,4
2017-03-24T04:54:49.810Z,0
2017-03-24T04:55:59.088Z,0
2017-03-24T04:57:08.054Z,4
2017-03-24T04:58:17.928Z,4
2017-03-24T04:59:27.504Z,8
2017-03-24T05:00:36.774Z,8
2017-03-24T05:01:45.745Z,8
2017-03-24T05:02:54.425Z,12
2017-03-24T05:04:04.007Z,12
2017-03-24T05:05:13.291Z,12
2017-03-24T05:06:22.554Z,16
2017-03-24T05:07:31.818Z,20
2017-03-24T05:08:41.093Z,24
2017-03-24T05:09:50.673Z,32
2017-03-24T05:10:59.952Z,40
2017-03-24T05:12:08.933Z,44
2017-03-24T05:13:17.904Z,56
2017-03-24T05:14:27.495Z,68
2017-03-24T05:15:36.165Z,84
2017-03-24T05:16:45.135Z,100
2017-03-24T05:17:54.707Z,116
2017-03-24T05:19:04.581Z,136
2017-03-24T05:20:13.849Z,160
2017-03-24T05:21:22.825Z,184
2017-03-24T05:22:31.799Z,212
2017-03-24T05:23:41.677Z,248
2017-03-24T05:24:50.652Z,280
2017-03-24T05:25:59.920Z,316
2017-03-24T05:27:09.197Z,360
2017-03-24T05:28:18.172Z,404
2017-03-24T05:29:27.758Z,452
2017-03-24T05:30:37.032Z,500
2017-03-24T05:31:46.008Z,560
2017-03-24T05:32:54.981Z,616
2017-03-24T05:34:04.559Z,676
2017-03-24T05:35:13.539Z,740
2017-03-24T05:36:22.209Z,804
2017-03-24T05:37:31.488Z,868
2017-03-24T05:38:40.756Z,940
2017-03-24T05:39:50.383Z,1008
2017-03-24T05:40:59.356Z,1080
2017-03-24T05:42:08.635Z,1156
2017-03-24T05:43:17.618Z,1228
2017-03-24T05:44:26.889Z,1308
2017-03-24T05:45:35.860Z,1392
2017-03-24T05:46:45.135Z,1480
2017-03-24T05:47:54.414Z,1564
2017-03-24T05:49:03.985Z,1648
2017-03-24T05:50:13.861Z,1736
2017-03-24T05:51:23.432Z,1824
2017-03-24T05:52:33.033Z,1912
2017-03-24T05:53:42.922Z,2008
2017-03-24T05:54:52.202Z,2100
2017-03-24T05:56:01.176Z,2192
2017-03-24T05:57:10.149Z,2280
2017-03-24T05:58:19.738Z,2352
2017-03-24T05:59:29.013Z,2436
2017-03-24T06:00:38.292Z,2528
2017-03-24T06:01:47.582Z,2616
2017-03-24T06:02:56.555Z,2692
2017-03-24T06:04:06.144Z,2772
2017-03-24T06:05:16.023Z,2828
2017-03-24T06:06:24.694Z,2884
2017-03-24T06:07:33.366Z,2964
2017-03-24T06:08:43.246Z,3040
2017-03-24T06:09:52.834Z,3068
2017-03-24T06:11:02.111Z,3312
2017-03-24T06:12:11.382Z,3584
2017-03-24T06:13:20.991Z,3500
2017-03-24T06:14:30.876Z,3600
2017-03-24T06:15:39.850Z,3560
2017-03-24T06:16:48.821Z,3672
2017-03-24T06:17:58.087Z,3860
2017-03-24T06:19:07.372Z,4000
2017-03-24T06:20:16.955Z,4040
2017-03-24T06:21:25.627Z,4172
2017-03-24T06:22:34.601Z,4212
2017-03-24T06:23:44.486Z,4640
2017-03-24T06:24:54.069Z,4592
2017-03-24T06:26:03.044Z,4508
2017-03-24T06:27:12.013Z,4612
2017-03-24T06:28:21.295Z,4652
2017-03-24T06:29:30.573Z,4844
2017-03-24T06:30:39.246Z,4992
2017-03-24T06:31:47.921Z,4928
2017-03-24T06:32:57.203Z,5072
2017-03-24T06:34:06.491Z,4996
2017-03-24T06:35:16.374Z,5092
2017-03-24T06:36:25.038Z,5224
2017-03-24T06:37:34.006Z,5144
2017-03-24T06:38:43.586Z,5372
2017-03-24T06:39:52.916Z,5384
2017-03-24T06:41:02.193Z,5412
2017-03-24T06:42:11.169Z,5392
2017-03-24T06:43:20.750Z,5628
2017-03-24T06:44:30.032Z,5656
2017-03-24T06:45:39.018Z,5760
2017-03-24T06:46:47.992Z,5820
2017-03-24T06:47:57.266Z,5856
2017-03-24T06:49:06.538Z,5876
2017-03-24T06:50:15.510Z,5716
2017-03-24T06:51:24.500Z,5768
2017-03-24T06:52:33.777Z,5652
2017-03-24T06:53:43.658Z,5632
2017-03-24T06:54:52.928Z,5832
2017-03-24T06:56:02.205Z,5852
2017-03-24T06:57:11.790Z,5992
2017-03-24T06:58:21.376Z,6352
2017-03-24T06:59:30.653Z,6572
2017-03-24T07:00:39.929Z,6500
2017-03-24T07:01:48.604Z,6472
2017-03-24T07:02:57.580Z,6620
2017-03-24T07:04:06.868Z,6916
2017-03-24T07:05:16.143Z,7156
2017-03-24T07:06:24.810Z,7148
2017-03-24T07:07:34.129Z,6976
2017-03-24T07:08:43.102Z,7600
2017-03-24T07:09:52.383Z,7056
2017-03-24T07:11:01.664Z,7188
2017-03-24T07:12:10.638Z,7428
2017-03-24T07:13:19.622Z,7280
2017-03-24T07:14:28.595Z,7408
2017-03-24T07:15:37.569Z,7684
2017-03-24T07:16:46.236Z,7512
2017-03-24T07:17:54.909Z,7460
2017-03-24T07:19:04.190Z,7364
2017-03-24T07:20:13.500Z,7564
2017-03-24T07:21:22.204Z,7844
2017-03-24T07:22:30.887Z,8356
2017-03-24T07:23:40.474Z,8772
2017-03-24T07:24:49.740Z,8536
2017-03-24T07:25:59.019Z,7908
2017-03-24T07:27:07.682Z,7864
2017-03-24T07:28:17.255Z,8456
2017-03-24T07:29:26.536Z,8628
2017-03-24T07:30:35.498Z,9220
2017-03-24T07:31:44.474Z,9848
2017-03-24T07:32:53.452Z,10148
2017-03-24T07:34:02.121Z,10092
2017-03-24T07:35:11.104Z,10500
2017-03-24T07:36:19.824Z,10492
2017-03-24T07:37:29.102Z,9896
2017-03-24T07:38:37.776Z,10120
2017-03-24T07:39:47.044Z,10468
2017-03-24T07:40:55.711Z,10260
2017-03-24T07:42:04.389Z,9972
2017-03-24T07:43:14.280Z,9720
2017-03-24T07:44:23.574Z,11188
2017-03-24T07:45:33.159Z,11896
2017-03-24T07:46:41.825Z,11948
2017-03-24T07:47:51.146Z,12416
2017-03-24T07:49:00.723Z,12184
2017-03-24T07:50:09.992Z,11644
2017-03-24T07:51:18.979Z,11384
2017-03-24T07:52:27.664Z,11080
2017-03-24T07:53:36.649Z,12016
2017-03-24T07:54:45.934Z,12276
2017-03-24T07:55:54.909Z,13024
2017-03-24T07:57:03.582Z,12912
2017-03-24T07:58:12.272Z,14268
2017-03-24T07:59:20.945Z,13592
2017-03-24T08:00:29.914Z,13680
2017-03-24T08:01:38.891Z,12020
2017-03-24T08:02:47.556Z,13040
2017-03-24T08:03:56.522Z,14192
2017-03-24T08:05:05.195Z,15932
2017-03-24T08:06:14.167Z,15260
2017-03-24T08:07:23.153Z,13032
2017-03-24T08:08:31.836Z,12116
2017-03-24T08:09:40.512Z,13784
2017-03-24T08:10:49.181Z,12780
2017-03-24T08:11:58.157Z,12476
2017-03-24T08:13:06.834Z,12640
2017-03-24T08:14:15.513Z,13196
2017-03-24T08:15:24.181Z,13616
2017-03-24T08:16:32.855Z,13744
2017-03-24T08:17:41.531Z,12456
2017-03-24T08:18:50.196Z,12244
2017-03-24T08:19:58.869Z,13700
2017-03-24T08:21:07.839Z,16828
2017-03-24T08:22:16.514Z,15044
2017-03-24T08:23:25.183Z,15056
2017-03-24T08:24:34.153Z,16708
2017-03-24T08:25:43.136Z,19712
2017-03-24T08:26:51.811Z,23872
2017-03-24T08:28:00.483Z,21056
2017-03-24T08:29:09.164Z,21312
2017-03-24T08:30:17.844Z,23232
2017-03-24T08:31:26.516Z,22240
2017-03-24T08:32:35.201Z,24064
2017-03-24T08:33:43.870Z,29344
2017-03-24T08:34:52.549Z,26144
2017-03-24T08:36:01.523Z,23072
2017-03-24T08:37:10.195Z,26144
2017-03-24T08:38:18.868Z,17484
2017-03-24T08:39:27.539Z,16616
2017-03-24T08:40:36.207Z,15220
2017-03-24T08:41:45.185Z,22080
2017-03-24T08:42:54.473Z,20064
2017-03-24T08:44:03.148Z,18752
2017-03-24T08:45:11.829Z,18208
2017-03-24T08:46:20.846Z,19936
2017-03-24T08:47:29.520Z,21280
2017-03-24T08:48:38.503Z,22496
2017-03-24T08:49:47.179Z,22592
2017-03-24T08:50:56.172Z,20992
2017-03-24T08:52:04.847Z,17392
2017-03-24T08:53:13.521Z,13960
2017-03-24T08:54:22.502Z,12084
2017-03-24T08:55:31.173Z,14812
2017-03-24T08:56:39.844Z,15404
2017-03-24T08:57:48.518Z,14688
2017-03-24T08:58:57.495Z,15580
2017-03-24T09:00:06.473Z,15072
2017-03-24T09:01:15.148Z,13904
2017-03-24T09:02:24.121Z,14828
2017-03-24T09:03:32.791Z,21440
2017-03-24T09:04:41.770Z,19968
2017-03-24T09:05:50.743Z,20736
2017-03-24T09:06:59.420Z,18624
2017-03-24T09:08:08.101Z,17420
2017-03-24T09:09:16.771Z,16048
2017-03-24T09:10:25.437Z,16384
2017-03-24T09:11:34.122Z,17504
2017-03-24T09:12:42.801Z,18624
2017-03-24T09:13:51.471Z,22304
2017-03-24T09:15:00.447Z,19648
2017-03-24T09:16:09.145Z,20128
2017-03-24T09:17:18.121Z,18880
2017-03-24T09:18:26.799Z,23808
2017-03-24T09:19:35.471Z,29440
2017-03-24T09:20:44.148Z,27392
2017-03-24T09:21:52.824Z,21952
2017-03-24T09:23:01.506Z,22336
2017-03-24T09:24:10.182Z,29408
2017-03-24T09:25:18.862Z,27616
2017-03-24T09:26:27.839Z,27008
2017-03-24T09:27:36.512Z,29280
2017-03-24T09:28:45.195Z,27296
2017-03-24T09:29:53.874Z,34048
2017-03-24T09:31:02.559Z,34464
2017-03-24T09:32:11.237Z,32256
2017-03-24T09:33:20.173Z,29664
2017-03-24T09:34:29.161Z,25632
2017-03-24T09:35:38.141Z,25728
2017-03-24T09:36:46.819Z,26240
2017-03-24T09:37:55.501Z,25184
2017-03-24T09:39:04.191Z,24960
2017-03-24T09:40:12.865Z,24288
2017-03-24T09:41:21.591Z,24064
2017-03-24T09:42:30.575Z,23904
2017-03-24T09:43:39.260Z,24000
2017-03-24T09:44:48.497Z,20160
2017-03-24T09:45:57.177Z,12788
2017-03-24T09:47:05.867Z,18432
2017-03-24T09:48:14.542Z,11692
2017-03-24T09:49:23.220Z,13932
2017-03-24T09:50:32.215Z,25120
2017-03-24T09:51:41.250Z,25568
2017-03-24T09:52:49.930Z,24992
2017-03-24T09:53:58.906Z,24832
2017-03-24T09:55:07.582Z,23328
2017-03-24T09:56:16.513Z,23424
2017-03-24T09:57:25.194Z,24544
2017-03-24T09:58:33.894Z,24192
2017-03-24T09:59:42.578Z,19680
2017-03-24T10:00:51.260Z,24064
2017-03-24T10:01:59.942Z,20192
2017-03-24T10:03:08.631Z,19040
2017-03-24T10:04:17.967Z,23136
2017-03-24T10:05:26.650Z,21152
2017-03-24T10:06:35.328Z,21696
2017-03-24T10:07:44.254Z,23968
2017-03-24T10:08:52.938Z,24000
2017-03-24T10:10:01.631Z,25760
2017-03-24T10:11:10.314Z,25696
2017-03-24T10:12:18.986Z,26208
2017-03-24T10:13:27.665Z,26976
2017-03-24T10:14:36.348Z,25792
2017-03-24T10:15:45.643Z,26272
2017-03-24T10:16:54.317Z,27712
2017-03-24T10:18:03.003Z,27840
2017-03-24T10:19:12.240Z,28736
2017-03-24T10:20:20.917Z,27424
2017-03-24T10:21:29.903Z,29184
2017-03-24T10:22:38.896Z,29184
2017-03-24T10:23:47.577Z,29344
2017-03-24T10:24:56.464Z,29568
2017-03-24T10:26:05.143Z,30112
2017-03-24T10:27:13.820Z,30784
2017-03-24T10:28:22.504Z,31520
2017-03-24T10:29:31.192Z,31648
2017-03-24T10:30:39.868Z,31168
2017-03-24T10:31:48.842Z,32224
2017-03-24T10:32:57.518Z,33760
2017-03-24T10:34:06.205Z,32384
2017-03-24T10:35:15.194Z,31360
2017-03-24T10:36:24.143Z,32448
2017-03-24T10:37:32.823Z,32480
2017-03-24T10:38:41.504Z,32192
2017-03-24T10:39:50.487Z,30080
2017-03-24T10:40:59.163Z,32480
2017-03-24T10:42:07.849Z,33760
2017-03-24T10:43:16.522Z,33248
2017-03-24T10:44:25.504Z,34208
2017-03-24T10:45:34.185Z,33600
2017-03-24T10:46:43.173Z,33408
2017-03-24T10:47:52.095Z,34624
2017-03-24T10:49:00.770Z,35520
2017-03-24T10:50:09.453Z,36832
2017-03-24T10:51:18.134Z,37504
2017-03-24T10:52:26.820Z,37312
2017-03-24T10:53:35.495Z,39904
2017-03-24T10:54:44.170Z,38944
2017-03-24T10:55:53.155Z,38752
2017-03-24T10:57:01.829Z,38144
2017-03-24T10:58:10.508Z,36736
2017-03-24T10:59:19.181Z,36576
2017-03-24T11:00:27.863Z,32928
2017-03-24T11:01:36.843Z,31840
2017-03-24T11:02:45.512Z,30976
2017-03-24T11:03:54.185Z,30752
2017-03-24T11:05:03.112Z,30912
2017-03-24T11:06:11.802Z,33312
2017-03-24T11:07:20.787Z,33952
2017-03-24T11:08:30.075Z,30752
2017-03-24T11:09:38.803Z,30816
2017-03-24T11:10:47.832Z,33408
2017-03-24T11:11:56.509Z,32928
2017-03-24T11:13:05.187Z,31104
2017-03-24T11:14:13.867Z,27424
2017-03-24T11:15:22.563Z,24288
2017-03-24T11:16:31.496Z,20352
2017-03-24T11:17:40.188Z,19136
2017-03-24T11:18:48.874Z,19808
2017-03-24T11:19:57.853Z,19520
2017-03-24T11:21:06.535Z,18528
2017-03-24T11:22:15.468Z,18116
2017-03-24T11:23:24.141Z,17244
2017-03-24T11:24:33.125Z,16308
2017-03-24T11:25:42.403Z,16136
2017-03-24T11:26:51.085Z,16804
2017-03-24T11:28:00.022Z,16948
2017-03-24T11:29:08.705Z,17068
2017-03-24T11:30:17.988Z,17084
2017-03-24T11:31:26.667Z,17512
2017-03-24T11:32:35.350Z,17340
2017-03-24T11:33:44.333Z,17688
2017-03-24T11:34:53.615Z,17388
2017-03-24T11:36:02.296Z,16616
2017-03-24T11:37:10.978Z,16480
2017-03-24T11:38:19.663Z,16304
2017-03-24T11:39:28.597Z,16024
2017-03-24T11:40:37.607Z,16424
2017-03-24T11:41:46.291Z,17696
2017-03-24T11:42:54.974Z,17192
2017-03-24T11:44:03.650Z,16712
2017-03-24T11:45:12.635Z,16188
2017-03-24T11:46:21.324Z,15836
2017-03-24T11:47:30.601Z,15628
2017-03-24T11:48:39.575Z,15548
2017-03-24T11:49:48.296Z,15552
2017-03-24T11:50:57.234Z,15904
2017-03-24T11:52:05.918Z,16160
2017-03-24T11:53:14.599Z,16476
2017-03-24T11:54:23.284Z,16380
2017-03-24T11:55:31.965Z,17092
2017-03-24T11:56:40.949Z,17392
2017-03-24T11:57:49.673Z,17580
2017-03-24T11:58:58.349Z,17784
2017-03-24T12:00:07.026Z,17852
2017-03-24T12:01:15.715Z,18124
2017-03-24T12:02:24.648Z,18088
2017-03-24T12:03:33.631Z,18304
2017-03-24T12:04:42.318Z,18496
2017-03-24T12:05:51.302Z,19008
2017-03-24T12:06:59.990Z,19264
2017-03-24T12:08:08.966Z,19328
2017-03-24T12:09:17.958Z,19200
2017-03-24T12:10:26.642Z,19296
2017-03-24T12:11:35.324Z,19392
2017-03-24T12:12:44.011Z,19744
2017-03-24T12:13:52.688Z,20736
2017-03-24T12:15:01.662Z,24800
2017-03-24T12:16:10.650Z,30432
2017-03-24T12:17:19.334Z,34656
2017-03-24T12:18:28.321Z,37568
2017-03-24T12:19:37.606Z,41280
2017-03-24T12:20:46.281Z,45088
2017-03-24T12:21:54.960Z,46880
2017-03-24T12:23:03.642Z,33984
2017-03-24T12:24:12.314Z,41568
2017-03-24T12:25:21.298Z,38176
2017-03-24T12:26:29.988Z,36544
2017-03-24T12:27:38.983Z,38592
2017-03-24T12:28:47.669Z,40352
2017-03-24T12:29:56.361Z,45568
2017-03-24T12:31:05.294Z,43584
2017-03-24T12:32:13.977Z,44576
2017-03-24T12:33:22.656Z,45760
2017-03-24T12:34:31.338Z,43648
2017-03-24T12:35:40.020Z,42752
2017-03-24T12:36:49.006Z,37824
2017-03-24T12:37:57.984Z,33632
2017-03-24T12:39:06.663Z,29376
2017-03-24T12:40:15.647Z,23200
2017-03-24T12:41:24.628Z,19424
2017-03-24T12:42:33.555Z,17056
2017-03-24T12:43:42.234Z,16488
2017-03-24T12:44:50.905Z,16364
2017-03-24T12:45:59.591Z,16220
2017-03-24T12:47:08.260Z,15672
2017-03-24T12:48:16.932Z,15848
2017-03-24T12:49:25.607Z,15776
2017-03-24T12:50:34.899Z,15616
2017-03-24T12:51:43.880Z,15624
2017-03-24T12:52:52.564Z,15392
2017-03-24T12:54:01.491Z,15744
2017-03-24T12:55:10.473Z,15748
2017-03-24T12:56:19.455Z,15476
2017-03-24T12:57:28.440Z,15296
2017-03-24T12:58:37.433Z,14768
2017-03-24T12:59:46.107Z,14840
2017-03-24T13:00:55.091Z,15020
2017-03-24T13:02:03.765Z,15004
2017-03-24T13:03:12.739Z,14928
2017-03-24T13:04:21.421Z,14728
2017-03-24T13:05:30.660Z,14680
2017-03-24T13:06:39.646Z,14292
2017-03-24T13:07:48.332Z,14276
2017-03-24T13:08:57.314Z,14116
2017-03-24T13:10:06.603Z,13432
2017-03-24T13:11:15.897Z,14272
2017-03-24T13:12:24.881Z,14448
2017-03-24T13:13:33.576Z,14676
2017-03-24T13:14:42.564Z,14900
2017-03-24T13:15:51.260Z,15040
2017-03-24T13:17:00.203Z,15040
2017-03-24T13:18:09.496Z,14788
2017-03-24T13:19:18.187Z,14412
2017-03-24T13:20:27.167Z,14288
2017-03-24T13:21:35.844Z,14244
2017-03-24T13:22:44.555Z,14116
2017-03-24T13:23:54.144Z,14024
2017-03-24T13:25:03.739Z,13968
2017-03-24T13:26:12.725Z,13824
2017-03-24T13:27:21.704Z,13640
2017-03-24T13:28:30.685Z,13476
2017-03-24T13:29:39.358Z,13396
2017-03-24T13:30:48.045Z,13284
2017-03-24T13:31:57.625Z,13212
2017-03-24T13:33:06.600Z,12976
2017-03-24T13:34:15.287Z,12916
2017-03-24T13:35:24.293Z,12876
2017-03-24T13:36:33.270Z,12928
2017-03-24T13:37:42.260Z,12948
2017-03-24T13:38:50.944Z,13000
2017-03-24T13:39:59.875Z,12984
2017-03-24T13:41:08.550Z,13004
2017-03-24T13:42:17.227Z,13044
2017-03-24T13:43:26.207Z,13036
2017-03-24T13:44:35.501Z,12672
2017-03-24T13:45:44.185Z,12256
2017-03-24T13:46:53.176Z,12720
2017-03-24T13:48:02.162Z,12772
2017-03-24T13:49:11.153Z,12768
2017-03-24T13:50:20.440Z,12760
2017-03-24T13:51:29.721Z,12092
2017-03-24T13:52:38.411Z,12508
2017-03-24T13:53:47.124Z,12072
2017-03-24T13:54:56.121Z,10800
2017-03-24T13:56:04.806Z,10316
2017-03-24T13:57:13.794Z,11436
2017-03-24T13:58:22.464Z,12588
2017-03-24T13:59:31.142Z,12788
2017-03-24T14:00:39.827Z,12348
2017-03-24T14:01:48.526Z,12944
2017-03-24T14:02:57.449Z,12956
2017-03-24T14:04:06.422Z,13000
2017-03-24T14:05:15.123Z,13132
2017-03-24T14:06:24.104Z,12908
2017-03-24T14:07:33.132Z,12528
2017-03-24T14:08:42.100Z,12228
2017-03-24T14:09:51.078Z,12156
2017-03-24T14:10:59.760Z,12120
2017-03-24T14:12:08.440Z,12036
2017-03-24T14:13:17.125Z,12076
2017-03-24T14:14:25.807Z,12176
2017-03-24T14:15:34.492Z,12260
2017-03-24T14:16:43.210Z,12424
2017-03-24T14:17:52.210Z,12544
2017-03-24T14:19:01.186Z,12660
2017-03-24T14:20:09.958Z,12784
2017-03-24T14:21:18.634Z,12876
2017-03-24T14:22:27.616Z,12944
2017-03-24T14:23:36.618Z,12980
2017-03-24T14:24:45.292Z,12916
2017-03-24T14:25:54.525Z,13044
2017-03-24T14:27:03.810Z,13300
2017-03-24T14:28:12.814Z,13408
2017-03-24T14:29:21.793Z,13400
2017-03-24T14:30:30.783Z,13344
2017-03-24T14:31:39.770Z,13308
2017-03-24T14:32:48.447Z,13516
2017-03-24T14:33:57.418Z,14492
2017-03-24T14:35:06.402Z,15336
2017-03-24T14:36:15.685Z,15908
2017-03-24T14:37:24.616Z,16696
2017-03-24T14:38:33.296Z,18624
2017-03-24T14:39:42.282Z,26784
2017-03-24T14:40:50.964Z,38624
2017-03-24T14:41:59.642Z,48864
2017-03-24T14:43:08.332Z,50720
2017-03-24T14:44:17.009Z,49856
2017-03-24T14:45:25.984Z,48256
2017-03-24T14:46:34.667Z,50432
2017-03-24T14:47:43.340Z,50336
2017-03-24T14:48:52.035Z,49856
2017-03-24T14:50:01.011Z,50624
2017-03-24T14:51:09.707Z,51008
2017-03-24T14:52:18.685Z,50560
2017-03-24T14:53:27.661Z,49952
2017-03-24T14:54:36.899Z,51008
2017-03-24T14:55:46.184Z,52032
2017-03-24T14:56:55.175Z,50048
2017-03-24T14:58:04.157Z,47616
2017-03-24T14:59:13.440Z,47040
2017-03-24T15:00:22.122Z,48640
2017-03-24T15:01:30.810Z,48096
2017-03-24T15:02:39.786Z,49600
2017-03-24T15:03:48.478Z,49376
2017-03-24T15:04:57.163Z,52064
2017-03-24T15:06:06.096Z,54080
2017-03-24T15:07:15.083Z,54048
2017-03-24T15:08:23.768Z,53568
2017-03-24T15:09:32.461Z,52832
2017-03-24T15:10:41.141Z,51936
2017-03-24T15:11:49.831Z,51808
2017-03-24T15:12:58.520Z,51392
2017-03-24T15:14:07.508Z,52320
2017-03-24T15:15:16.501Z,53088
2017-03-24T15:16:25.492Z,54208
2017-03-24T15:17:35.026Z,54080
2017-03-24T15:18:43.753Z,55072
2017-03-24T15:19:52.731Z,54880
2017-03-24T15:21:01.415Z,54976
2017-03-24T15:22:10.114Z,55584
2017-03-24T15:23:19.098Z,56512
2017-03-24T15:24:28.084Z,56480
2017-03-24T15:25:36.765Z,56416
2017-03-24T15:26:45.753Z,55936
2017-03-24T15:27:54.441Z,55840
2017-03-24T15:29:03.724Z,55168
2017-03-24T15:30:12.717Z,55200
2017-03-24T15:31:21.711Z,55104
2017-03-24T15:32:30.996Z,54336
2017-03-24T15:33:39.981Z,52992
2017-03-24T15:34:48.660Z,52832